sensor_id;sensor_type;location;lat;lon;timestamp;temperature;humidity
52575;DHT22;38468;48.114;-1.684;2023-02-05T00:01:53;9.70;71.70
52575;DHT22;38468;48.114;-1.684;2023-02-05T00:03:54;9.70;71.70
52575;DHT22;38468;48.114;-1.684;2023-02-05T00:05:54;9.70;71.90
52575;DHT22;38468;48.114;-1.684;2023-02-05T00:07:55;9.60;72.10
52575;DHT22;38468;48.114;-1.684;2023-02-05T00:09:55;9.70;72.20
52575;DHT22;38468;48.114;-1.684;2023-02-05T00:11:56;9.60;72.10
52575;DHT22;38468;48.114;-1.684;2023-02-05T00:13:57;9.70;72.30
52575;DHT22;38468;48.114;-1.684;2023-02-05T00:15:58;9.70;72.50
52575;DHT22;38468;48.114;-1.684;2023-02-05T00:17:58;9.70;72.50
52575;DHT22;38468;48.114;-1.684;2023-02-05T00:19:59;9.80;72.40
52575;DHT22;38468;48.114;-1.684;2023-02-05T00:22:00;9.70;72.50
52575;DHT22;38468;48.114;-1.684;2023-02-05T00:24:00;9.70;72.70
52575;DHT22;38468;48.114;-1.684;2023-02-05T00:26:02;9.70;72.80
52575;DHT22;38468;48.114;-1.684;2023-02-05T00:28:02;9.70;72.80
52575;DHT22;38468;48.114;-1.684;2023-02-05T00:30:03;9.70;72.80
52575;DHT22;38468;48.114;-1.684;2023-02-05T00:32:04;9.60;73.10
52575;DHT22;38468;48.114;-1.684;2023-02-05T00:34:05;9.70;73.10
52575;DHT22;38468;48.114;-1.684;2023-02-05T00:36:06;9.70;73.10
52575;DHT22;38468;48.114;-1.684;2023-02-05T00:38:07;9.80;73.10
52575;DHT22;38468;48.114;-1.684;2023-02-05T00:40:08;9.70;73.20
52575;DHT22;38468;48.114;-1.684;2023-02-05T00:42:09;9.70;73.20
52575;DHT22;38468;48.114;-1.684;2023-02-05T00:44:10;9.70;73.50
52575;DHT22;38468;48.114;-1.684;2023-02-05T00:46:11;9.70;73.50
52575;DHT22;38468;48.114;-1.684;2023-02-05T00:48:12;9.70;73.50
52575;DHT22;38468;48.114;-1.684;2023-02-05T00:50:13;9.70;73.70
52575;DHT22;38468;48.114;-1.684;2023-02-05T00:52:13;9.70;73.80
52575;DHT22;38468;48.114;-1.684;2023-02-05T00:54:14;9.70;73.70
52575;DHT22;38468;48.114;-1.684;2023-02-05T00:56:15;9.70;73.60
52575;DHT22;38468;48.114;-1.684;2023-02-05T00:58:15;9.70;73.80
52575;DHT22;38468;48.114;-1.684;2023-02-05T01:00:17;9.60;73.90
52575;DHT22;38468;48.114;-1.684;2023-02-05T01:02:23;9.60;73.90
52575;DHT22;38468;48.114;-1.684;2023-02-05T01:04:24;9.70;74.10
52575;DHT22;38468;48.114;-1.684;2023-02-05T01:06:25;9.70;74.00
52575;DHT22;38468;48.114;-1.684;2023-02-05T01:08:25;9.70;73.80
52575;DHT22;38468;48.114;-1.684;2023-02-05T01:10:26;9.70;73.90
52575;DHT22;38468;48.114;-1.684;2023-02-05T01:12:27;9.70;74.10
52575;DHT22;38468;48.114;-1.684;2023-02-05T01:14:27;9.60;74.10
52575;DHT22;38468;48.114;-1.684;2023-02-05T01:16:28;9.60;74.00
52575;DHT22;38468;48.114;-1.684;2023-02-05T01:18:29;9.60;74.10
52575;DHT22;38468;48.114;-1.684;2023-02-05T01:20:29;9.60;74.00
52575;DHT22;38468;48.114;-1.684;2023-02-05T01:22:31;9.60;73.90
52575;DHT22;38468;48.114;-1.684;2023-02-05T01:24:31;9.60;73.80
52575;DHT22;38468;48.114;-1.684;2023-02-05T01:26:32;9.60;73.80
52575;DHT22;38468;48.114;-1.684;2023-02-05T01:28:32;9.60;73.90
52575;DHT22;38468;48.114;-1.684;2023-02-05T01:30:34;9.60;73.80
52575;DHT22;38468;48.114;-1.684;2023-02-05T01:32:35;9.60;74.00
52575;DHT22;38468;48.114;-1.684;2023-02-05T01:34:35;9.50;74.00
52575;DHT22;38468;48.114;-1.684;2023-02-05T01:36:36;9.50;74.20
52575;DHT22;38468;48.114;-1.684;2023-02-05T01:38:37;9.50;74.60
52575;DHT22;38468;48.114;-1.684;2023-02-05T01:40:37;9.50;74.60
52575;DHT22;38468;48.114;-1.684;2023-02-05T01:42:38;9.50;74.30
52575;DHT22;38468;48.114;-1.684;2023-02-05T01:44:39;9.50;74.50
52575;DHT22;38468;48.114;-1.684;2023-02-05T01:46:42;9.50;74.40
52575;DHT22;38468;48.114;-1.684;2023-02-05T01:48:46;9.50;74.40
52575;DHT22;38468;48.114;-1.684;2023-02-05T01:50:52;9.50;74.50
52575;DHT22;38468;48.114;-1.684;2023-02-05T01:52:58;9.50;74.70
52575;DHT22;38468;48.114;-1.684;2023-02-05T01:54:59;9.50;74.50
52575;DHT22;38468;48.114;-1.684;2023-02-05T01:57:08;9.50;74.50
52575;DHT22;38468;48.114;-1.684;2023-02-05T01:59:18;9.50;74.50
52575;DHT22;38468;48.114;-1.684;2023-02-05T02:01:19;9.50;74.40
52575;DHT22;38468;48.114;-1.684;2023-02-05T02:03:20;9.50;74.30
52575;DHT22;38468;48.114;-1.684;2023-02-05T02:05:23;9.50;74.30
52575;DHT22;38468;48.114;-1.684;2023-02-05T02:07:23;9.50;74.40
52575;DHT22;38468;48.114;-1.684;2023-02-05T02:09:24;9.50;74.50
52575;DHT22;38468;48.114;-1.684;2023-02-05T02:11:27;9.50;74.50
52575;DHT22;38468;48.114;-1.684;2023-02-05T02:13:30;9.50;74.50
52575;DHT22;38468;48.114;-1.684;2023-02-05T02:15:32;9.50;74.70
52575;DHT22;38468;48.114;-1.684;2023-02-05T02:17:34;9.40;74.60
52575;DHT22;38468;48.114;-1.684;2023-02-05T02:20:01;9.40;75.00
52575;DHT22;38468;48.114;-1.684;2023-02-05T02:26:56;9.40;75.10
52575;DHT22;38468;48.114;-1.684;2023-02-05T02:29:01;9.30;75.30
52575;DHT22;38468;48.114;-1.684;2023-02-05T02:31:12;9.40;75.40
52575;DHT22;38468;48.114;-1.684;2023-02-05T02:33:33;9.40;75.50
52575;DHT22;38468;48.114;-1.684;2023-02-05T02:36:05;9.30;75.80
52575;DHT22;38468;48.114;-1.684;2023-02-05T02:40:36;9.30;75.90
52575;DHT22;38468;48.114;-1.684;2023-02-05T02:42:46;9.40;75.80
52575;DHT22;38468;48.114;-1.684;2023-02-05T02:46:58;9.40;75.90
52575;DHT22;38468;48.114;-1.684;2023-02-05T02:49:05;9.40;75.70
52575;DHT22;38468;48.114;-1.684;2023-02-05T02:51:07;9.40;75.90
52575;DHT22;38468;48.114;-1.684;2023-02-05T02:53:20;9.30;75.90
52575;DHT22;38468;48.114;-1.684;2023-02-05T02:55:23;9.30;76.10
52575;DHT22;38468;48.114;-1.684;2023-02-05T02:57:26;9.30;76.30
52575;DHT22;38468;48.114;-1.684;2023-02-05T02:59:29;9.30;76.00
52575;DHT22;38468;48.114;-1.684;2023-02-05T03:01:33;9.40;76.00
52575;DHT22;38468;48.114;-1.684;2023-02-05T03:03:36;9.30;76.10
52575;DHT22;38468;48.114;-1.684;2023-02-05T03:05:38;9.40;76.00
52575;DHT22;38468;48.114;-1.684;2023-02-05T03:07:46;9.40;76.10
52575;DHT22;38468;48.114;-1.684;2023-02-05T03:09:54;9.40;76.10
52575;DHT22;38468;48.114;-1.684;2023-02-05T03:11:55;9.30;76.10
52575;DHT22;38468;48.114;-1.684;2023-02-05T03:13:56;9.40;76.20
52575;DHT22;38468;48.114;-1.684;2023-02-05T03:15:57;9.40;76.10
52575;DHT22;38468;48.114;-1.684;2023-02-05T03:17:57;9.40;76.00
52575;DHT22;38468;48.114;-1.684;2023-02-05T03:20:07;9.40;76.40
52575;DHT22;38468;48.114;-1.684;2023-02-05T03:22:08;9.30;76.40
52575;DHT22;38468;48.114;-1.684;2023-02-05T03:24:09;9.30;76.50
52575;DHT22;38468;48.114;-1.684;2023-02-05T03:26:22;9.40;76.50
52575;DHT22;38468;48.114;-1.684;2023-02-05T03:28:23;9.30;76.60
52575;DHT22;38468;48.114;-1.684;2023-02-05T03:30:33;9.30;76.60
52575;DHT22;38468;48.114;-1.684;2023-02-05T03:33:12;9.30;77.00
52575;DHT22;38468;48.114;-1.684;2023-02-05T03:47:11;9.20;77.00
52575;DHT22;38468;48.114;-1.684;2023-02-05T03:51:52;9.30;77.20
52575;DHT22;38468;48.114;-1.684;2023-02-05T03:54:10;9.20;77.00
52575;DHT22;38468;48.114;-1.684;2023-02-05T03:56:19;9.30;77.00
52575;DHT22;38468;48.114;-1.684;2023-02-05T03:58:40;9.30;77.00
52575;DHT22;38468;48.114;-1.684;2023-02-05T04:00:42;9.30;76.80
52575;DHT22;38468;48.114;-1.684;2023-02-05T04:02:44;9.20;76.90
52575;DHT22;38468;48.114;-1.684;2023-02-05T04:04:44;9.20;77.20
52575;DHT22;38468;48.114;-1.684;2023-02-05T04:06:46;9.30;76.90
52575;DHT22;38468;48.114;-1.684;2023-02-05T04:08:48;9.30;76.70
52575;DHT22;38468;48.114;-1.684;2023-02-05T04:10:49;9.30;76.90
52575;DHT22;38468;48.114;-1.684;2023-02-05T04:12:49;9.30;76.80
52575;DHT22;38468;48.114;-1.684;2023-02-05T04:14:50;9.30;76.80
52575;DHT22;38468;48.114;-1.684;2023-02-05T04:16:51;9.20;76.90
52575;DHT22;38468;48.114;-1.684;2023-02-05T04:18:51;9.20;76.90
52575;DHT22;38468;48.114;-1.684;2023-02-05T04:20:52;9.20;76.80
52575;DHT22;38468;48.114;-1.684;2023-02-05T04:22:53;9.20;76.90
52575;DHT22;38468;48.114;-1.684;2023-02-05T04:24:53;9.10;77.20
52575;DHT22;38468;48.114;-1.684;2023-02-05T04:26:54;9.10;77.20
52575;DHT22;38468;48.114;-1.684;2023-02-05T04:28:56;9.20;77.10
52575;DHT22;38468;48.114;-1.684;2023-02-05T04:30:56;9.10;77.00
52575;DHT22;38468;48.114;-1.684;2023-02-05T04:32:57;9.20;77.40
52575;DHT22;38468;48.114;-1.684;2023-02-05T04:34:58;9.10;77.20
52575;DHT22;38468;48.114;-1.684;2023-02-05T04:36:58;9.20;77.30
52575;DHT22;38468;48.114;-1.684;2023-02-05T04:38:59;9.20;77.20
52575;DHT22;38468;48.114;-1.684;2023-02-05T04:41:00;9.20;77.00
52575;DHT22;38468;48.114;-1.684;2023-02-05T04:43:00;9.10;77.50
52575;DHT22;38468;48.114;-1.684;2023-02-05T04:45:01;9.20;77.20
52575;DHT22;38468;48.114;-1.684;2023-02-05T04:47:01;9.20;77.00
52575;DHT22;38468;48.114;-1.684;2023-02-05T04:49:02;9.30;77.00
52575;DHT22;38468;48.114;-1.684;2023-02-05T04:51:07;9.30;76.90
52575;DHT22;38468;48.114;-1.684;2023-02-05T04:53:09;9.30;77.10
52575;DHT22;38468;48.114;-1.684;2023-02-05T04:55:09;9.20;77.20
52575;DHT22;38468;48.114;-1.684;2023-02-05T04:57:10;9.20;76.90
52575;DHT22;38468;48.114;-1.684;2023-02-05T04:59:10;9.20;77.10
52575;DHT22;38468;48.114;-1.684;2023-02-05T05:01:13;9.20;77.10
52575;DHT22;38468;48.114;-1.684;2023-02-05T05:03:14;9.20;77.20
52575;DHT22;38468;48.114;-1.684;2023-02-05T05:05:16;9.20;77.20
52575;DHT22;38468;48.114;-1.684;2023-02-05T05:07:17;9.20;76.90
52575;DHT22;38468;48.114;-1.684;2023-02-05T05:09:17;9.20;77.30
52575;DHT22;38468;48.114;-1.684;2023-02-05T05:11:20;9.20;77.20
52575;DHT22;38468;48.114;-1.684;2023-02-05T05:13:20;9.20;77.10
52575;DHT22;38468;48.114;-1.684;2023-02-05T05:15:21;9.20;77.20
52575;DHT22;38468;48.114;-1.684;2023-02-05T05:17:21;9.20;77.00
52575;DHT22;38468;48.114;-1.684;2023-02-05T05:19:22;9.10;77.40
52575;DHT22;38468;48.114;-1.684;2023-02-05T05:21:23;9.20;77.40
52575;DHT22;38468;48.114;-1.684;2023-02-05T05:23:23;9.20;77.30
52575;DHT22;38468;48.114;-1.684;2023-02-05T05:25:24;9.20;77.50
52575;DHT22;38468;48.114;-1.684;2023-02-05T05:27:25;9.20;77.30
52575;DHT22;38468;48.114;-1.684;2023-02-05T05:29:25;9.20;77.30
52575;DHT22;38468;48.114;-1.684;2023-02-05T05:31:26;9.20;77.40
52575;DHT22;38468;48.114;-1.684;2023-02-05T05:33:27;9.20;77.40
52575;DHT22;38468;48.114;-1.684;2023-02-05T05:35:27;9.20;77.50
52575;DHT22;38468;48.114;-1.684;2023-02-05T05:37:28;9.20;77.50
52575;DHT22;38468;48.114;-1.684;2023-02-05T05:39:28;9.20;77.40
52575;DHT22;38468;48.114;-1.684;2023-02-05T05:41:48;9.20;77.60
52575;DHT22;38468;48.114;-1.684;2023-02-05T05:44:07;9.20;77.50
52575;DHT22;38468;48.114;-1.684;2023-02-05T05:46:08;9.20;78.00
52575;DHT22;38468;48.114;-1.684;2023-02-05T05:48:09;9.20;77.80
52575;DHT22;38468;48.114;-1.684;2023-02-05T05:50:09;9.30;77.70
52575;DHT22;38468;48.114;-1.684;2023-02-05T05:52:10;9.30;77.80
52575;DHT22;38468;48.114;-1.684;2023-02-05T05:54:11;9.30;77.70
52575;DHT22;38468;48.114;-1.684;2023-02-05T05:56:12;9.20;77.80
52575;DHT22;38468;48.114;-1.684;2023-02-05T05:58:13;9.30;78.00
52575;DHT22;38468;48.114;-1.684;2023-02-05T06:00:14;9.40;78.00
52575;DHT22;38468;48.114;-1.684;2023-02-05T06:02:15;9.40;78.00
52575;DHT22;38468;48.114;-1.684;2023-02-05T06:04:16;9.30;78.20
52575;DHT22;38468;48.114;-1.684;2023-02-05T06:06:16;9.40;78.20
52575;DHT22;38468;48.114;-1.684;2023-02-05T06:08:17;9.40;78.40
52575;DHT22;38468;48.114;-1.684;2023-02-05T06:10:18;9.30;78.70
52575;DHT22;38468;48.114;-1.684;2023-02-05T06:12:19;9.30;78.70
52575;DHT22;38468;48.114;-1.684;2023-02-05T06:14:19;9.30;79.00
52575;DHT22;38468;48.114;-1.684;2023-02-05T06:16:20;9.30;79.20
52575;DHT22;38468;48.114;-1.684;2023-02-05T06:18:21;9.30;79.30
52575;DHT22;38468;48.114;-1.684;2023-02-05T06:20:22;9.30;79.40
52575;DHT22;38468;48.114;-1.684;2023-02-05T06:22:23;9.30;79.20
52575;DHT22;38468;48.114;-1.684;2023-02-05T06:24:23;9.40;79.40
52575;DHT22;38468;48.114;-1.684;2023-02-05T06:26:24;9.40;79.30
52575;DHT22;38468;48.114;-1.684;2023-02-05T06:28:25;9.40;79.40
52575;DHT22;38468;48.114;-1.684;2023-02-05T06:30:26;9.40;79.50
52575;DHT22;38468;48.114;-1.684;2023-02-05T06:32:26;9.40;79.30
52575;DHT22;38468;48.114;-1.684;2023-02-05T06:34:27;9.40;79.70
52575;DHT22;38468;48.114;-1.684;2023-02-05T06:36:27;9.40;79.50
52575;DHT22;38468;48.114;-1.684;2023-02-05T06:38:28;9.30;79.70
52575;DHT22;38468;48.114;-1.684;2023-02-05T06:40:29;9.40;79.70
52575;DHT22;38468;48.114;-1.684;2023-02-05T06:42:30;9.40;79.70
52575;DHT22;38468;48.114;-1.684;2023-02-05T06:44:31;9.40;79.70
52575;DHT22;38468;48.114;-1.684;2023-02-05T06:46:32;9.40;79.60
52575;DHT22;38468;48.114;-1.684;2023-02-05T06:48:33;9.50;79.50
52575;DHT22;38468;48.114;-1.684;2023-02-05T06:50:33;9.50;79.40
52575;DHT22;38468;48.114;-1.684;2023-02-05T06:52:34;9.40;79.70
52575;DHT22;38468;48.114;-1.684;2023-02-05T06:54:34;9.40;79.60
52575;DHT22;38468;48.114;-1.684;2023-02-05T06:56:35;9.40;79.80
52575;DHT22;38468;48.114;-1.684;2023-02-05T06:58:36;9.40;79.70
52575;DHT22;38468;48.114;-1.684;2023-02-05T07:00:37;9.40;79.80
52575;DHT22;38468;48.114;-1.684;2023-02-05T07:02:37;9.40;79.80
52575;DHT22;38468;48.114;-1.684;2023-02-05T07:04:38;9.40;79.90
52575;DHT22;38468;48.114;-1.684;2023-02-05T07:06:39;9.40;79.80
52575;DHT22;38468;48.114;-1.684;2023-02-05T07:08:39;9.40;79.60
52575;DHT22;38468;48.114;-1.684;2023-02-05T07:10:40;9.40;79.80
52575;DHT22;38468;48.114;-1.684;2023-02-05T07:12:40;9.40;79.80
52575;DHT22;38468;48.114;-1.684;2023-02-05T07:14:41;9.40;79.90
52575;DHT22;38468;48.114;-1.684;2023-02-05T07:16:42;9.40;79.70
52575;DHT22;38468;48.114;-1.684;2023-02-05T07:18:42;9.30;79.80
52575;DHT22;38468;48.114;-1.684;2023-02-05T07:20:43;9.30;80.00
52575;DHT22;38468;48.114;-1.684;2023-02-05T07:22:44;9.40;79.80
52575;DHT22;38468;48.114;-1.684;2023-02-05T07:24:46;9.40;79.60
52575;DHT22;38468;48.114;-1.684;2023-02-05T07:26:47;9.40;79.50
52575;DHT22;38468;48.114;-1.684;2023-02-05T07:28:47;9.40;79.60
52575;DHT22;38468;48.114;-1.684;2023-02-05T07:30:48;9.40;79.60
52575;DHT22;38468;48.114;-1.684;2023-02-05T07:32:49;9.40;79.70
52575;DHT22;38468;48.114;-1.684;2023-02-05T07:34:51;9.40;79.80
52575;DHT22;38468;48.114;-1.684;2023-02-05T07:36:52;9.30;79.90
52575;DHT22;38468;48.114;-1.684;2023-02-05T07:38:52;9.30;80.00
52575;DHT22;38468;48.114;-1.684;2023-02-05T07:40:53;9.40;79.80
52575;DHT22;38468;48.114;-1.684;2023-02-05T07:42:54;9.40;79.80
52575;DHT22;38468;48.114;-1.684;2023-02-05T07:44:55;9.40;79.80
52575;DHT22;38468;48.114;-1.684;2023-02-05T07:46:56;9.40;79.80
52575;DHT22;38468;48.114;-1.684;2023-02-05T07:48:57;9.40;79.80
52575;DHT22;38468;48.114;-1.684;2023-02-05T07:50:57;9.40;79.80
52575;DHT22;38468;48.114;-1.684;2023-02-05T07:52:58;9.40;80.20
52575;DHT22;38468;48.114;-1.684;2023-02-05T07:54:59;9.40;79.90
52575;DHT22;38468;48.114;-1.684;2023-02-05T07:57:00;9.40;80.10
52575;DHT22;38468;48.114;-1.684;2023-02-05T07:59:01;9.40;80.00
52575;DHT22;38468;48.114;-1.684;2023-02-05T08:01:03;9.40;79.80
52575;DHT22;38468;48.114;-1.684;2023-02-05T08:03:04;9.40;79.90
52575;DHT22;38468;48.114;-1.684;2023-02-05T08:05:05;9.40;80.10
52575;DHT22;38468;48.114;-1.684;2023-02-05T08:07:06;9.40;80.00
52575;DHT22;38468;48.114;-1.684;2023-02-05T08:09:06;9.40;80.00
52575;DHT22;38468;48.114;-1.684;2023-02-05T08:11:09;9.40;80.10
52575;DHT22;38468;48.114;-1.684;2023-02-05T08:13:11;9.40;80.10
52575;DHT22;38468;48.114;-1.684;2023-02-05T08:15:12;9.40;80.00
52575;DHT22;38468;48.114;-1.684;2023-02-05T08:17:13;9.50;80.00
52575;DHT22;38468;48.114;-1.684;2023-02-05T08:19:20;9.50;79.90
52575;DHT22;38468;48.114;-1.684;2023-02-05T08:21:21;9.50;79.80
52575;DHT22;38468;48.114;-1.684;2023-02-05T08:23:21;9.50;79.90
52575;DHT22;38468;48.114;-1.684;2023-02-05T08:25:28;9.60;79.90
52575;DHT22;38468;48.114;-1.684;2023-02-05T08:27:31;9.60;79.80
52575;DHT22;38468;48.114;-1.684;2023-02-05T08:29:32;9.50;79.90
52575;DHT22;38468;48.114;-1.684;2023-02-05T08:31:36;9.50;80.00
52575;DHT22;38468;48.114;-1.684;2023-02-05T08:33:36;9.50;80.00
52575;DHT22;38468;48.114;-1.684;2023-02-05T08:35:37;9.50;80.60
52575;DHT22;38468;48.114;-1.684;2023-02-05T08:37:38;9.50;80.30
52575;DHT22;38468;48.114;-1.684;2023-02-05T08:39:38;9.50;80.10
52575;DHT22;38468;48.114;-1.684;2023-02-05T08:41:39;9.50;80.10
52575;DHT22;38468;48.114;-1.684;2023-02-05T08:43:42;9.50;80.20
52575;DHT22;38468;48.114;-1.684;2023-02-05T08:45:45;9.50;80.10
52575;DHT22;38468;48.114;-1.684;2023-02-05T08:47:47;9.50;80.40
52575;DHT22;38468;48.114;-1.684;2023-02-05T08:49:48;9.60;80.30
52575;DHT22;38468;48.114;-1.684;2023-02-05T08:51:48;9.60;80.00
52575;DHT22;38468;48.114;-1.684;2023-02-05T08:53:49;9.60;80.10
52575;DHT22;38468;48.114;-1.684;2023-02-05T08:55:58;9.70;80.10
52575;DHT22;38468;48.114;-1.684;2023-02-05T08:57:59;9.70;80.10
52575;DHT22;38468;48.114;-1.684;2023-02-05T09:00:00;9.70;80.00
52575;DHT22;38468;48.114;-1.684;2023-02-05T09:02:01;9.70;79.90
52575;DHT22;38468;48.114;-1.684;2023-02-05T09:04:03;9.80;80.00
52575;DHT22;38468;48.114;-1.684;2023-02-05T09:06:08;9.80;80.10
52575;DHT22;38468;48.114;-1.684;2023-02-05T09:08:09;9.80;80.00
52575;DHT22;38468;48.114;-1.684;2023-02-05T09:10:11;9.80;80.20
52575;DHT22;38468;48.114;-1.684;2023-02-05T09:12:12;9.90;80.00
52575;DHT22;38468;48.114;-1.684;2023-02-05T09:14:13;9.90;80.00
52575;DHT22;38468;48.114;-1.684;2023-02-05T09:16:14;10.00;79.80
52575;DHT22;38468;48.114;-1.684;2023-02-05T09:18:15;10.20;80.00
52575;DHT22;38468;48.114;-1.684;2023-02-05T09:20:16;11.50;79.40
52575;DHT22;38468;48.114;-1.684;2023-02-05T09:22:16;11.90;76.80
52575;DHT22;38468;48.114;-1.684;2023-02-05T09:24:17;11.80;76.00
52575;DHT22;38468;48.114;-1.684;2023-02-05T09:26:18;11.50;75.80
52575;DHT22;38468;48.114;-1.684;2023-02-05T09:28:19;11.20;75.90
52575;DHT22;38468;48.114;-1.684;2023-02-05T09:30:19;11.20;76.70
52575;DHT22;38468;48.114;-1.684;2023-02-05T09:32:20;11.00;77.00
52575;DHT22;38468;48.114;-1.684;2023-02-05T09:34:21;11.00;77.60
52575;DHT22;38468;48.114;-1.684;2023-02-05T09:36:22;11.00;77.60
52575;DHT22;38468;48.114;-1.684;2023-02-05T09:38:23;11.10;77.90
52575;DHT22;38468;48.114;-1.684;2023-02-05T09:40:27;11.20;77.70
52575;DHT22;38468;48.114;-1.684;2023-02-05T09:42:40;11.20;77.80
52575;DHT22;38468;48.114;-1.684;2023-02-05T09:47:25;11.10;78.30
52575;DHT22;38468;48.114;-1.684;2023-02-05T09:49:55;11.10;78.30
52575;DHT22;38468;48.114;-1.684;2023-02-05T09:52:06;11.10;78.40
52575;DHT22;38468;48.114;-1.684;2023-02-05T09:54:16;11.20;78.40
52575;DHT22;38468;48.114;-1.684;2023-02-05T09:56:19;11.20;78.40
52575;DHT22;38468;48.114;-1.684;2023-02-05T09:58:23;11.20;78.40
52575;DHT22;38468;48.114;-1.684;2023-02-05T10:00:27;11.20;78.60
52575;DHT22;38468;48.114;-1.684;2023-02-05T10:04:58;11.20;79.10
52575;DHT22;38468;48.114;-1.684;2023-02-05T10:07:19;11.30;78.90
52575;DHT22;38468;48.114;-1.684;2023-02-05T10:12:31;11.40;79.10
52575;DHT22;38468;48.114;-1.684;2023-02-05T10:14:12;11.50;78.70
52575;DHT22;38468;48.114;-1.684;2023-02-05T10:16:19;11.50;78.60
52575;DHT22;38468;48.114;-1.684;2023-02-05T10:27:49;11.60;77.80
52575;DHT22;38468;48.114;-1.684;2023-02-05T10:32:21;11.70;77.60
52575;DHT22;38468;48.114;-1.684;2023-02-05T10:36:56;11.70;77.40
52575;DHT22;38468;48.114;-1.684;2023-02-05T10:38:57;11.70;77.40
52575;DHT22;38468;48.114;-1.684;2023-02-05T10:41:25;11.70;77.40
52575;DHT22;38468;48.114;-1.684;2023-02-05T10:43:38;11.60;77.20
52575;DHT22;38468;48.114;-1.684;2023-02-05T10:45:40;11.70;77.50
52575;DHT22;38468;48.114;-1.684;2023-02-05T10:50:02;11.60;77.40
52575;DHT22;38468;48.114;-1.684;2023-02-05T10:52:04;11.50;77.40
52575;DHT22;38468;48.114;-1.684;2023-02-05T10:54:22;11.60;77.20
52575;DHT22;38468;48.114;-1.684;2023-02-05T10:56:25;11.50;77.10
52575;DHT22;38468;48.114;-1.684;2023-02-05T11:00:38;11.40;77.20
52575;DHT22;38468;48.114;-1.684;2023-02-05T11:02:41;11.40;77.20
52575;DHT22;38468;48.114;-1.684;2023-02-05T11:04:53;11.40;77.00
52575;DHT22;38468;48.114;-1.684;2023-02-05T11:06:54;11.40;76.90
52575;DHT22;38468;48.114;-1.684;2023-02-05T11:08:56;11.40;76.80
52575;DHT22;38468;48.114;-1.684;2023-02-05T11:10:56;11.30;76.50
52575;DHT22;38468;48.114;-1.684;2023-02-05T11:13:16;11.30;76.30
52575;DHT22;38468;48.114;-1.684;2023-02-05T11:15:26;11.30;76.40
52575;DHT22;38468;48.114;-1.684;2023-02-05T11:17:32;11.40;76.30
52575;DHT22;38468;48.114;-1.684;2023-02-05T11:19:34;11.50;75.80
52575;DHT22;38468;48.114;-1.684;2023-02-05T11:23:55;12.40;74.30
52575;DHT22;38468;48.114;-1.684;2023-02-05T11:26:06;13.00;73.10
52575;DHT22;38468;48.114;-1.684;2023-02-05T11:28:22;13.10;70.60
52575;DHT22;38468;48.114;-1.684;2023-02-05T11:32:36;13.40;69.10
52575;DHT22;38468;48.114;-1.684;2023-02-05T11:34:37;13.50;67.90
52575;DHT22;38468;48.114;-1.684;2023-02-05T11:36:46;13.70;67.90
52575;DHT22;38468;48.114;-1.684;2023-02-05T11:38:54;13.90;66.30
52575;DHT22;38468;48.114;-1.684;2023-02-05T11:41:01;14.20;67.50
52575;DHT22;38468;48.114;-1.684;2023-02-05T11:43:16;14.30;65.40
52575;DHT22;38468;48.114;-1.684;2023-02-05T11:45:19;14.20;65.50
52575;DHT22;38468;48.114;-1.684;2023-02-05T11:47:31;14.00;65.70
52575;DHT22;38468;48.114;-1.684;2023-02-05T11:49:36;13.80;66.00
52575;DHT22;38468;48.114;-1.684;2023-02-05T11:53:53;13.40;65.80
52575;DHT22;38468;48.114;-1.684;2023-02-05T11:55:56;13.30;67.40
52575;DHT22;38468;48.114;-1.684;2023-02-05T11:58:00;13.50;66.70
52575;DHT22;38468;48.114;-1.684;2023-02-05T12:04:45;14.30;66.10
52575;DHT22;38468;48.114;-1.684;2023-02-05T12:06:55;14.50;65.20
52575;DHT22;38468;48.114;-1.684;2023-02-05T12:08:56;14.90;64.90
52575;DHT22;38468;48.114;-1.684;2023-02-05T12:11:27;15.40;62.40
52575;DHT22;38468;48.114;-1.684;2023-02-05T12:15:44;15.90;59.50
52575;DHT22;38468;48.114;-1.684;2023-02-05T12:20:14;15.50;59.60
52575;DHT22;38468;48.114;-1.684;2023-02-05T12:22:30;15.50;59.80
52575;DHT22;38468;48.114;-1.684;2023-02-05T12:26:48;16.00;59.30
52575;DHT22;38468;48.114;-1.684;2023-02-05T12:29:00;16.00;58.60
52575;DHT22;38468;48.114;-1.684;2023-02-05T12:31:20;16.40;59.10
52575;DHT22;38468;48.114;-1.684;2023-02-05T12:33:56;16.70;57.30
52575;DHT22;38468;48.114;-1.684;2023-02-05T12:38:42;17.20;55.40
52575;DHT22;38468;48.114;-1.684;2023-02-05T12:43:08;17.50;54.20
52575;DHT22;38468;48.114;-1.684;2023-02-05T12:56:51;16.50;54.20
52575;DHT22;38468;48.114;-1.684;2023-02-05T12:59:04;15.90;55.30
52575;DHT22;38468;48.114;-1.684;2023-02-05T13:01:12;16.10;55.90
52575;DHT22;38468;48.114;-1.684;2023-02-05T13:03:29;16.00;55.10
52575;DHT22;38468;48.114;-1.684;2023-02-05T13:05:57;16.00;55.60
52575;DHT22;38468;48.114;-1.684;2023-02-05T13:10:38;15.90;55.60
52575;DHT22;38468;48.114;-1.684;2023-02-05T13:12:46;16.00;54.70
52575;DHT22;38468;48.114;-1.684;2023-02-05T13:17:14;16.70;53.90
52575;DHT22;38468;48.114;-1.684;2023-02-05T13:19:30;16.30;53.10
52575;DHT22;38468;48.114;-1.684;2023-02-05T13:21:33;15.40;52.80
52575;DHT22;38468;48.114;-1.684;2023-02-05T13:24:02;16.00;54.40
52575;DHT22;38468;48.114;-1.684;2023-02-05T13:26:33;17.20;52.20
52575;DHT22;38468;48.114;-1.684;2023-02-05T13:31:02;18.50;47.30
52575;DHT22;38468;48.114;-1.684;2023-02-05T13:33:05;18.60;47.80
52575;DHT22;38468;48.114;-1.684;2023-02-05T13:35:07;18.80;44.80
52575;DHT22;38468;48.114;-1.684;2023-02-05T13:58:58;20.60;38.00
52575;DHT22;38468;48.114;-1.684;2023-02-05T14:01:05;19.60;40.20
52575;DHT22;38468;48.114;-1.684;2023-02-05T14:03:20;19.60;42.70
52575;DHT22;38468;48.114;-1.684;2023-02-05T14:05:29;20.70;40.50
52575;DHT22;38468;48.114;-1.684;2023-02-05T14:07:34;20.90;40.40
52575;DHT22;38468;48.114;-1.684;2023-02-05T14:09:40;21.50;39.20
52575;DHT22;38468;48.114;-1.684;2023-02-05T14:12:12;21.50;39.50
52575;DHT22;38468;48.114;-1.684;2023-02-05T14:14:32;21.40;37.30
52575;DHT22;38468;48.114;-1.684;2023-02-05T14:16:37;21.40;36.20
52575;DHT22;38468;48.114;-1.684;2023-02-05T14:20:42;21.70;37.00
52575;DHT22;38468;48.114;-1.684;2023-02-05T14:22:45;21.70;37.30
52575;DHT22;38468;48.114;-1.684;2023-02-05T14:24:49;21.50;37.90
52575;DHT22;38468;48.114;-1.684;2023-02-05T14:26:55;21.50;38.10
52575;DHT22;38468;48.114;-1.684;2023-02-05T14:28:56;21.60;35.70
52575;DHT22;38468;48.114;-1.684;2023-02-05T14:31:04;20.80;37.30
52575;DHT22;38468;48.114;-1.684;2023-02-05T14:37:31;21.50;34.60
52575;DHT22;38468;48.114;-1.684;2023-02-05T14:39:33;22.00;33.50
52575;DHT22;38468;48.114;-1.684;2023-02-05T14:43:42;22.10;34.80
52575;DHT22;38468;48.114;-1.684;2023-02-05T14:45:48;22.00;33.90
52575;DHT22;38468;48.114;-1.684;2023-02-05T14:47:49;22.00;33.70
52575;DHT22;38468;48.114;-1.684;2023-02-05T14:49:51;22.00;36.00
52575;DHT22;38468;48.114;-1.684;2023-02-05T14:54:26;22.50;34.40
52575;DHT22;38468;48.114;-1.684;2023-02-05T14:56:52;22.30;33.80
52575;DHT22;38468;48.114;-1.684;2023-02-05T14:58:59;22.00;33.20
52575;DHT22;38468;48.114;-1.684;2023-02-05T15:03:36;21.80;33.30
52575;DHT22;38468;48.114;-1.684;2023-02-05T15:07:44;21.70;33.30
52575;DHT22;38468;48.114;-1.684;2023-02-05T15:10:04;21.50;33.20